Time;durP1;ratioP1;P1;durP2;ratioP2;P2;SDS_P1;SDS_P2;PMS_P1;PMS_P2;Temp;Humidity;BMP_temperature;BMP_pressure;BME280_temperature;BME280_humidity;BME280_pressure;Samples;Min_cycle;Max_cycle;Signal;HPM_P1;HPM_P2
2023/12/02 05:02:04;;;;;;;;;;;-2.50;97.30;;;;;;5265398;23;19929;-87
2023/12/02 05:04:30;;;;;;;;;;;-2.50;97.30;;;;;;4912938;29;19911;-87
2023/12/02 05:06:55;;;;;;;;;;;-2.50;97.30;;;;;;4919317;29;19913;-88
2023/12/02 05:09:21;;;;;;;;;;;-2.50;97.30;;;;;;4919059;29;19994;-87
2023/12/02 05:11:47;;;;;;;;;;;-2.50;97.30;;;;;;4895650;29;19919;-87
2023/12/02 05:14:12;;;;;;;;;;;-2.50;97.30;;;;;;4912015;29;19962;-88
2023/12/02 05:16:40;;;;;;;;;;;-2.50;97.30;;;;;;4911188;29;19911;-88
2023/12/02 05:19:06;;;;;;;;;;;-2.50;97.30;;;;;;4918632;29;19907;-88
2023/12/02 05:21:31;;;;;;;;;;;-2.50;97.30;;;;;;4919558;29;19908;-88
2023/12/02 05:23:56;;;;;;;;;;;-2.50;97.30;;;;;;4918755;29;19917;-88
2023/12/02 05:26:22;;;;;;;;;;;-2.50;97.30;;;;;;4913250;29;19907;-87
2023/12/02 05:28:47;;;;;;;;;;;-2.50;97.30;;;;;;4913033;29;19907;-88
2023/12/02 05:31:13;;;;;;;;;;;-2.50;97.30;;;;;;4918744;29;20295;-88
2023/12/02 05:33:38;;;;;;;;;;;-2.50;97.30;;;;;;4917111;29;20291;-87
2023/12/02 05:36:03;;;;;;;;;;;-2.50;97.30;;;;;;4908444;29;19895;-87
2023/12/02 05:38:29;;;;;;;;;;;-2.50;97.30;;;;;;4920736;29;19895;-87
2023/12/02 05:40:54;;;;;;;;;;;-2.50;97.30;;;;;;4939194;29;19895;-87
2023/12/02 05:43:20;;;;;;;;;;;-2.50;97.30;;;;;;4926266;29;20515;-87
2023/12/02 05:45:45;;;;;;;;;;;-2.50;97.30;;;;;;4929340;29;19907;-88
2023/12/02 05:48:11;;;;;;;;;;;-2.50;97.30;;;;;;4915069;29;19911;-87
2023/12/02 05:50:36;;;;;;;;;;;-2.50;97.30;;;;;;4915381;29;19919;-86
2023/12/02 05:53:04;;;;;;;;;;;-2.50;97.30;;;;;;4900006;29;20223;-86
2023/12/02 05:55:30;;;;;;;;;;;-2.50;97.30;;;;;;4899979;29;19907;-87
2023/12/02 05:57:55;;;;;;;;;;;-2.50;97.30;;;;;;4917474;29;20291;-88
2023/12/02 06:00:21;;;;;;;;;;;-2.50;97.30;;;;;;4900091;29;19922;-87
2023/12/02 06:02:47;;;;;;;;;;;-2.50;97.30;;;;;;4915342;29;19923;-88
2023/12/02 06:05:12;;;;;;;;;;;-2.50;97.30;;;;;;4899856;29;19950;-88
2023/12/02 06:07:38;;;;;;;;;;;-2.50;97.30;;;;;;4914462;29;19907;-87
2023/12/02 06:10:03;;;;;;;;;;;-2.60;97.30;;;;;;4899413;29;20343;-88
2023/12/02 06:12:29;;;;;;;;;;;-2.60;97.30;;;;;;4899472;29;20099;-87
2023/12/02 06:14:54;;;;;;;;;;;-2.60;97.30;;;;;;4915330;29;20496;-88
2023/12/02 06:17:20;;;;;;;;;;;-2.60;97.30;;;;;;4914944;29;19955;-88
2023/12/02 06:19:45;;;;;;;;;;;-2.60;97.30;;;;;;4916841;29;19914;-86
2023/12/02 06:22:11;;;;;;;;;;;-2.60;97.30;;;;;;4901193;29;19954;-87
2023/12/02 06:24:36;;;;;;;;;;;-2.60;97.30;;;;;;4914511;29;19915;-88
2023/12/02 06:27:02;;;;;;;;;;;-2.60;97.30;;;;;;4897792;29;19919;-87
2023/12/02 06:29:28;;;;;;;;;;;-2.60;97.30;;;;;;4897771;29;20384;-87
2023/12/02 06:31:53;;;;;;;;;;;-2.60;97.30;;;;;;4913103;29;19911;-86
2023/12/02 06:34:19;;;;;;;;;;;-2.60;97.30;;;;;;4917361;29;19907;-87
2023/12/02 06:36:44;;;;;;;;;;;-2.60;97.30;;;;;;4921699;29;20409;-87
2023/12/02 06:39:13;;;;;;;;;;;-2.60;97.30;;;;;;4915824;29;19942;-87
2023/12/02 06:41:41;;;;;;;;;;;-2.60;97.30;;;;;;4915445;29;20314;-86
2023/12/02 06:44:06;;;;;;;;;;;-2.60;97.30;;;;;;4923625;29;19907;-87
2023/12/02 06:46:32;;;;;;;;;;;-2.60;97.30;;;;;;4915153;29;19917;-87
2023/12/02 06:48:57;;;;;;;;;;;-2.60;97.30;;;;;;4914378;29;20364;-86
2023/12/02 06:51:28;;;;;;;;;;;-2.60;97.30;;;;;;4919473;29;19919;-86
2023/12/02 06:53:57;;;;;;;;;;;-2.60;97.30;;;;;;4899630;29;19915;-85
2023/12/02 06:56:23;;;;;;;;;;;-2.60;97.30;;;;;;4913956;29;19910;-85
2023/12/02 06:58:49;;;;;;;;;;;-2.70;97.30;;;;;;4913681;29;19958;-86
2023/12/02 07:01:28;;;;;;;;;;;-2.70;97.30;;;;;;4913532;29;19919;-87
2023/12/02 07:03:54;;;;;;;;;;;-2.70;97.30;;;;;;4913809;29;19934;-88
2023/12/02 07:06:20;;;;;;;;;;;-2.70;97.30;;;;;;4920771;29;19967;-86
2023/12/02 07:08:46;;;;;;;;;;;-2.70;97.30;;;;;;4905771;29;20299;-86
2023/12/02 07:11:12;;;;;;;;;;;-2.70;97.30;;;;;;4907914;29;19911;-86
2023/12/02 07:13:37;;;;;;;;;;;-2.70;97.30;;;;;;4915036;29;19907;-88
2023/12/02 07:16:03;;;;;;;;;;;-2.70;97.30;;;;;;4914812;29;19907;-87
2023/12/02 07:18:28;;;;;;;;;;;-2.80;97.30;;;;;;4922278;29;20349;-87
2023/12/02 07:20:54;;;;;;;;;;;-2.80;97.30;;;;;;4902450;29;19907;-86
2023/12/02 07:23:19;;;;;;;;;;;-2.80;97.30;;;;;;4928218;29;19914;-86
2023/12/02 07:25:45;;;;;;;;;;;-2.80;97.30;;;;;;4907664;29;19911;-87
2023/12/02 07:28:11;;;;;;;;;;;-2.80;97.30;;;;;;4915731;29;19915;-87
2023/12/02 07:30:36;;;;;;;;;;;-2.70;97.30;;;;;;4906805;29;19919;-86
2023/12/02 07:33:02;;;;;;;;;;;-2.70;97.30;;;;;;4914234;29;19907;-87
2023/12/02 07:35:27;;;;;;;;;;;-2.70;97.30;;;;;;4921450;29;19907;-87
2023/12/02 07:37:53;;;;;;;;;;;-2.70;97.30;;;;;;4928477;29;20028;-87
2023/12/02 07:40:18;;;;;;;;;;;-2.70;97.30;;;;;;4924064;29;19998;-88
2023/12/02 07:42:43;;;;;;;;;;;-2.70;97.30;;;;;;4927535;29;19911;-88
2023/12/02 07:45:09;;;;;;;;;;;-2.70;97.30;;;;;;4921380;29;19910;-86
2023/12/02 07:47:34;;;;;;;;;;;-2.60;97.30;;;;;;4898649;29;19907;-88
2023/12/02 07:50:00;;;;;;;;;;;-2.60;97.30;;;;;;4915098;29;19907;-86
2023/12/02 07:52:25;;;;;;;;;;;-2.60;97.30;;;;;;4913162;29;19958;-86
2023/12/02 07:54:50;;;;;;;;;;;-2.60;97.30;;;;;;4913876;29;19996;-87
2023/12/02 07:57:16;;;;;;;;;;;-2.50;97.30;;;;;;4913474;29;19961;-87
2023/12/02 07:59:41;;;;;;;;;;;-2.60;97.30;;;;;;4919199;29;19911;-87
2023/12/02 08:02:07;;;;;;;;;;;-2.60;97.30;;;;;;4920005;29;19923;-87
2023/12/02 08:04:32;;;;;;;;;;;-2.60;97.30;;;;;;4919015;29;20261;-87
2023/12/02 08:06:58;;;;;;;;;;;-2.60;97.30;;;;;;4913698;29;20363;-87
2023/12/02 08:09:23;;;;;;;;;;;-2.60;97.30;;;;;;4926478;29;20323;-87
2023/12/02 08:11:49;;;;;;;;;;;-2.60;97.30;;;;;;4917905;29;19944;-87
2023/12/02 08:14:14;;;;;;;;;;;-2.60;97.30;;;;;;4913416;29;19907;-88
2023/12/02 08:16:40;;;;;;;;;;;-2.60;97.30;;;;;;4914990;29;19962;-88
2023/12/02 08:19:05;;;;;;;;;;;-2.50;97.30;;;;;;4917852;29;19938;-87
2023/12/02 08:21:31;;;;;;;;;;;-2.50;97.30;;;;;;4924631;29;19907;-86
2023/12/02 08:23:56;;;;;;;;;;;-2.50;97.30;;;;;;4915596;29;20380;-87
2023/12/02 08:26:22;;;;;;;;;;;-2.40;97.30;;;;;;4898934;29;19911;-87
2023/12/02 08:28:48;;;;;;;;;;;-2.40;97.30;;;;;;4897862;29;20159;-87
2023/12/02 08:31:14;;;;;;;;;;;-2.30;97.30;;;;;;4909347;29;19915;-87
2023/12/02 08:33:40;;;;;;;;;;;-2.30;97.30;;;;;;4920866;29;20284;-87
2023/12/02 08:36:06;;;;;;;;;;;-2.40;97.30;;;;;;4898227;29;19907;-87
2023/12/02 08:38:32;;;;;;;;;;;-2.40;97.30;;;;;;4919576;29;19911;-86
2023/12/02 08:40:57;;;;;;;;;;;-2.40;97.30;;;;;;4913382;29;20455;-87
2023/12/02 08:43:24;;;;;;;;;;;-2.30;97.30;;;;;;4928459;29;20336;-86
2023/12/02 08:45:49;;;;;;;;;;;-2.30;97.30;;;;;;4913390;29;19914;-87
2023/12/02 08:48:15;;;;;;;;;;;-2.20;97.30;;;;;;4913764;29;19907;-87
2023/12/02 08:50:40;;;;;;;;;;;-2.20;97.30;;;;;;4902815;29;19919;-87
2023/12/02 08:53:06;;;;;;;;;;;-2.20;97.30;;;;;;4923631;29;19907;-86
2023/12/02 08:55:31;;;;;;;;;;;-2.20;97.30;;;;;;4914941;29;19907;-87
2023/12/02 08:57:57;;;;;;;;;;;-2.20;97.30;;;;;;4916007;29;19986;-87
2023/12/02 09:00:22;;;;;;;;;;;-2.10;97.30;;;;;;4914537;29;19914;-86
2023/12/02 09:02:48;;;;;;;;;;;-2.10;97.30;;;;;;4913402;29;19925;-87
2023/12/02 09:05:13;;;;;;;;;;;-2.10;97.30;;;;;;4913219;29;19911;-86
2023/12/02 09:07:39;;;;;;;;;;;-2.10;97.30;;;;;;4905422;29;19914;-86
2023/12/02 09:10:05;;;;;;;;;;;-2.20;97.30;;;;;;4924021;29;20374;-86
2023/12/02 09:12:30;;;;;;;;;;;-2.20;97.30;;;;;;4931857;29;20030;-87
2023/12/02 09:15:05;;;;;;;;;;;-2.30;97.30;;;;;;4915260;29;19997;-86
2023/12/02 09:17:50;;;;;;;;;;;-2.30;97.30;;;;;;4914659;29;19915;-86
2023/12/02 09:20:33;;;;;;;;;;;-2.30;97.30;;;;;;4918265;29;19906;-85
2023/12/02 09:23:02;;;;;;;;;;;-2.30;97.30;;;;;;4905565;29;19961;-86
2023/12/02 09:25:31;;;;;;;;;;;-2.30;97.30;;;;;;4917839;29;19914;-87
2023/12/02 09:28:05;;;;;;;;;;;-2.30;97.30;;;;;;4901431;29;19911;-87
2023/12/02 09:30:35;;;;;;;;;;;-2.30;97.30;;;;;;4916692;29;19913;-86
2023/12/02 09:33:01;;;;;;;;;;;-2.30;97.30;;;;;;4917559;29;19962;-86
2023/12/02 09:35:27;;;;;;;;;;;-2.30;97.30;;;;;;4918610;29;20331;-86
2023/12/02 09:37:56;;;;;;;;;;;-2.30;97.30;;;;;;4922949;29;19911;-87
2023/12/02 09:40:23;;;;;;;;;;;-2.30;97.30;;;;;;4933837;29;19911;-86
2023/12/02 09:42:55;;;;;;;;;;;-2.30;97.30;;;;;;4932567;29;19929;-87
2023/12/02 09:45:22;;;;;;;;;;;-2.20;97.30;;;;;;4918064;29;19971;-87
2023/12/02 09:47:56;;;;;;;;;;;-2.30;97.30;;;;;;4906595;29;19910;-87
2023/12/02 09:50:22;;;;;;;;;;;-2.30;97.30;;;;;;4949978;29;19939;-86
2023/12/02 09:52:48;;;;;;;;;;;-2.20;97.30;;;;;;4920518;29;19922;-86
2023/12/02 09:55:21;;;;;;;;;;;-2.20;97.30;;;;;;4923144;29;19926;-86
2023/12/02 09:57:52;;;;;;;;;;;-2.10;97.30;;;;;;4903442;29;20473;-86
2023/12/02 10:00:21;;;;;;;;;;;-2.10;97.30;;;;;;4913463;29;19950;-86
2023/12/02 10:02:49;;;;;;;;;;;-2.10;97.30;;;;;;4928074;29;19919;-86
2023/12/02 10:05:15;;;;;;;;;;;-2.10;97.30;;;;;;4918295;29;19917;-87
2023/12/02 10:08:00;;;;;;;;;;;-2.10;97.30;;;;;;4897763;29;20006;-87
2023/12/02 10:10:26;;;;;;;;;;;-2.10;97.30;;;;;;4918047;29;20099;-86
2023/12/02 10:12:52;;;;;;;;;;;-2.10;97.30;;;;;;4907754;29;19914;-87
2023/12/02 10:15:19;;;;;;;;;;;-2.10;97.30;;;;;;4944495;28;19919;-88
2023/12/02 10:18:00;;;;;;;;;;;-2.10;97.30;;;;;;4939120;28;19919;-88
2023/12/02 10:20:28;;;;;;;;;;;-2.10;97.30;;;;;;4930208;29;19922;-87
2023/12/02 10:23:08;;;;;;;;;;;-2.20;97.30;;;;;;4921917;29;19921;-87
2023/12/02 10:25:37;;;;;;;;;;;-2.30;97.30;;;;;;4926416;29;20189;-86
2023/12/02 10:28:22;;;;;;;;;;;-2.30;97.30;;;;;;4922209;29;19954;-86
2023/12/02 10:30:49;;;;;;;;;;;-2.40;97.30;;;;;;4920625;29;19957;-87
2023/12/02 10:33:23;;;;;;;;;;;-2.40;97.30;;;;;;4932187;29;19911;-86
2023/12/02 10:35:49;;;;;;;;;;;-2.40;97.30;;;;;;4927127;29;19997;-84
2023/12/02 10:38:27;;;;;;;;;;;-2.40;97.30;;;;;;4924407;29;19991;-87
2023/12/02 10:41:04;;;;;;;;;;;-2.50;97.30;;;;;;4908102;29;19967;-84
2023/12/02 10:43:34;;;;;;;;;;;-2.70;97.30;;;;;;4924447;29;19907;-85
2023/12/02 10:46:00;;;;;;;;;;;-2.70;97.30;;;;;;4914914;29;19967;-84
2023/12/02 10:48:26;;;;;;;;;;;-2.60;97.30;;;;;;4919960;29;19907;-86
2023/12/02 10:50:51;;;;;;;;;;;-2.60;97.30;;;;;;4901476;29;20521;-87
2023/12/02 10:53:19;;;;;;;;;;;-2.60;97.30;;;;;;4961500;23;19966;-85
2023/12/02 10:55:47;;;;;;;;;;;-2.50;97.30;;;;;;4943431;28;19994;-84
2023/12/02 10:58:13;;;;;;;;;;;-2.50;97.30;;;;;;4936518;29;19907;-85
2023/12/02 11:00:42;;;;;;;;;;;-2.50;97.30;;;;;;4927183;29;19961;-85
2023/12/02 11:03:26;;;;;;;;;;;-2.50;97.30;;;;;;4930005;29;19926;-85
2023/12/02 11:05:57;;;;;;;;;;;-2.70;97.30;;;;;;4923613;29;19907;-84
2023/12/02 11:08:34;;;;;;;;;;;-2.80;97.30;;;;;;4919612;29;19912;-85
2023/12/02 11:11:01;;;;;;;;;;;-3.00;97.30;;;;;;4917442;29;19934;-81
2023/12/02 11:13:30;;;;;;;;;;;-3.00;97.30;;;;;;4916962;29;19914;-86
2023/12/02 11:16:12;;;;;;;;;;;-2.90;97.30;;;;;;4909071;29;19907;-84
2023/12/02 11:18:49;;;;;;;;;;;-2.80;97.30;;;;;;4902540;29;19933;-85
2023/12/02 11:21:20;;;;;;;;;;;-2.70;97.30;;;;;;4922795;29;20008;-86
2023/12/02 11:23:51;;;;;;;;;;;-2.30;97.30;;;;;;4918216;29;20304;-80
2023/12/02 11:26:25;;;;;;;;;;;-2.30;97.30;;;;;;4926378;29;19907;-85
2023/12/02 11:29:00;;;;;;;;;;;-2.40;97.30;;;;;;4907564;29;20422;-85
2023/12/02 11:31:34;;;;;;;;;;;-2.40;97.30;;;;;;4915436;29;19915;-84
2023/12/02 11:34:14;;;;;;;;;;;-2.40;97.30;;;;;;4919475;29;19915;-85
2023/12/02 11:36:59;;;;;;;;;;;-2.30;97.30;;;;;;4918203;29;19939;-84
2023/12/02 11:40:03;;;;;;;;;;;-2.30;97.30;;;;;;4915882;29;19914;-83
2023/12/02 11:42:32;;;;;;;;;;;-2.30;97.30;;;;;;4877511;29;20016;-83
2023/12/02 11:44:58;;;;;;;;;;;-2.20;97.30;;;;;;4879037;29;19912;-83
2023/12/02 11:47:31;;;;;;;;;;;-2.10;97.30;;;;;;4883041;29;19937;-83
2023/12/02 11:50:05;;;;;;;;;;;-2.10;97.30;;;;;;4907810;29;19918;-85
2023/12/02 11:52:49;;;;;;;;;;;-2.10;97.30;;;;;;4912001;29;19919;-86
2023/12/02 11:55:29;;;;;;;;;;;-2.10;97.30;;;;;;4904886;29;19907;-84
2023/12/02 11:57:58;;;;;;;;;;;-2.10;97.30;;;;;;4913115;29;19966;-85
2023/12/02 12:00:29;;;;;;;;;;;-2.10;97.30;;;;;;4921987;29;19907;-85
2023/12/02 12:02:54;;;;;;;;;;;-2.10;97.30;;;;;;4924060;29;19911;-84
2023/12/02 12:05:28;;;;;;;;;;;-2.20;97.30;;;;;;4914526;29;20295;-83
2023/12/02 12:07:57;;;;;;;;;;;-2.10;97.30;;;;;;4934257;29;19966;-84
2023/12/02 12:10:32;;;;;;;;;;;-2.10;97.30;;;;;;4909085;29;20332;-85
2023/12/02 12:12:59;;;;;;;;;;;-2.10;97.30;;;;;;4919425;29;19981;-85
2023/12/02 12:15:25;;;;;;;;;;;-2.00;97.30;;;;;;4912669;29;19911;-85
2023/12/02 12:17:50;;;;;;;;;;;-2.00;97.30;;;;;;4907101;29;19911;-85
2023/12/02 12:20:16;;;;;;;;;;;-2.10;97.30;;;;;;4913605;29;20313;-84
2023/12/02 12:22:42;;;;;;;;;;;-2.10;97.30;;;;;;4917392;29;19922;-85
2023/12/02 12:25:07;;;;;;;;;;;-2.10;97.30;;;;;;4921833;29;19985;-84
2023/12/02 12:27:33;;;;;;;;;;;-2.10;97.30;;;;;;4924423;29;20406;-84
2023/12/02 12:29:58;;;;;;;;;;;-2.10;97.30;;;;;;4920944;29;19998;-85
2023/12/02 12:32:24;;;;;;;;;;;-2.10;97.30;;;;;;4916635;29;20069;-85
2023/12/02 12:34:55;;;;;;;;;;;-2.10;97.30;;;;;;4918579;29;20361;-85
2023/12/02 12:37:21;;;;;;;;;;;-2.00;97.30;;;;;;4919154;29;19993;-85
2023/12/02 12:39:47;;;;;;;;;;;-1.90;97.30;;;;;;4921241;29;20142;-87
2023/12/02 12:42:15;;;;;;;;;;;-1.90;97.30;;;;;;4920865;29;19922;-86
2023/12/02 12:44:41;;;;;;;;;;;-1.90;97.30;;;;;;4903435;29;19911;-85
2023/12/02 12:47:10;;;;;;;;;;;-1.90;97.30;;;;;;4916553;29;19978;-85
2023/12/02 12:49:38;;;;;;;;;;;-1.80;97.30;;;;;;4899037;29;19911;-85
2023/12/02 12:52:06;;;;;;;;;;;-1.90;97.30;;;;;;4915908;29;20344;-86
2023/12/02 12:54:33;;;;;;;;;;;-1.90;97.30;;;;;;4908582;29;19975;-86
2023/12/02 12:57:03;;;;;;;;;;;-1.90;97.30;;;;;;4914223;29;19907;-84
2023/12/02 12:59:33;;;;;;;;;;;-1.90;97.30;;;;;;4923281;29;20388;-84
2023/12/02 13:02:17;;;;;;;;;;;-1.90;97.30;;;;;;4909210;29;19917;-84
2023/12/02 13:04:53;;;;;;;;;;;-2.00;97.30;;;;;;4917718;29;19910;-84
2023/12/02 13:07:23;;;;;;;;;;;-2.00;97.30;;;;;;4900732;29;19911;-87
2023/12/02 13:09:51;;;;;;;;;;;-2.00;97.30;;;;;;4912620;29;20020;-84
2023/12/02 13:12:20;;;;;;;;;;;-2.00;97.30;;;;;;4898578;29;19942;-84
2023/12/02 13:14:50;;;;;;;;;;;-1.90;97.30;;;;;;4915757;29;19914;-85
2023/12/02 13:17:16;;;;;;;;;;;-2.00;97.30;;;;;;4914409;29;19907;-86
2023/12/02 13:19:43;;;;;;;;;;;-2.10;97.30;;;;;;4924089;29;19907;-86
2023/12/02 13:22:09;;;;;;;;;;;-2.10;97.30;;;;;;4913805;29;19907;-87
2023/12/02 13:24:39;;;;;;;;;;;-2.10;97.30;;;;;;4922332;29;19906;-86
2023/12/02 13:27:12;;;;;;;;;;;-2.10;97.30;;;;;;4922318;29;19929;-86
2023/12/02 13:29:37;;;;;;;;;;;-2.00;97.30;;;;;;4927195;29;19914;-86
2023/12/02 13:32:03;;;;;;;;;;;-2.00;97.30;;;;;;4903928;29;19911;-85
2023/12/02 13:34:36;;;;;;;;;;;-2.00;97.30;;;;;;4909159;29;19906;-86
2023/12/02 13:37:03;;;;;;;;;;;-2.00;97.30;;;;;;4918121;29;19934;-86
2023/12/02 13:39:32;;;;;;;;;;;-1.90;97.30;;;;;;4916386;29;19910;-85
2023/12/02 13:42:02;;;;;;;;;;;-1.90;97.30;;;;;;4924913;29;20371;-86
2023/12/02 13:44:30;;;;;;;;;;;-1.90;97.30;;;;;;4905052;29;19907;-86
2023/12/02 13:47:05;;;;;;;;;;;-1.90;97.30;;;;;;4904753;29;19910;-86
2023/12/02 13:49:49;;;;;;;;;;;-1.90;97.30;;;;;;4924832;29;19907;-86
2023/12/02 13:52:28;;;;;;;;;;;-1.90;97.30;;;;;;4921128;29;19978;-85
2023/12/02 13:55:06;;;;;;;;;;;-1.80;97.30;;;;;;4900143;29;20002;-84
2023/12/02 13:57:39;;;;;;;;;;;-1.90;97.30;;;;;;4923111;29;19999;-86
2023/12/02 14:00:08;;;;;;;;;;;-1.90;97.30;;;;;;4905090;29;20295;-86
2023/12/02 14:02:34;;;;;;;;;;;-2.00;97.30;;;;;;4913847;29;19934;-86
2023/12/02 14:05:07;;;;;;;;;;;-2.00;97.30;;;;;;4908140;29;20376;-86
2023/12/02 14:07:33;;;;;;;;;;;-2.00;97.30;;;;;;4923742;29;19907;-86
2023/12/02 14:09:58;;;;;;;;;;;-2.00;97.30;;;;;;4909146;29;20381;-86
2023/12/02 14:12:33;;;;;;;;;;;-2.00;97.30;;;;;;4913603;29;19915;-85
2023/12/02 14:15:16;;;;;;;;;;;-2.10;97.30;;;;;;4924732;29;19907;-85
2023/12/02 14:17:48;;;;;;;;;;;-2.10;97.30;;;;;;4912641;29;19907;-85
2023/12/02 14:20:16;;;;;;;;;;;-2.10;97.30;;;;;;4916729;29;19912;-86
2023/12/02 14:22:59;;;;;;;;;;;-2.10;97.30;;;;;;4923592;29;19907;-86
2023/12/02 14:25:27;;;;;;;;;;;-2.10;97.30;;;;;;4909899;29;19958;-86
2023/12/02 14:27:53;;;;;;;;;;;-2.20;97.30;;;;;;4923786;29;19911;-86
2023/12/02 14:30:31;;;;;;;;;;;-2.20;97.30;;;;;;4921118;29;19907;-88
2023/12/02 14:33:09;;;;;;;;;;;-2.20;97.30;;;;;;4921122;29;19915;-86
2023/12/02 14:35:44;;;;;;;;;;;-2.20;97.30;;;;;;4925631;29;19917;-85
2023/12/02 14:38:17;;;;;;;;;;;-2.30;97.30;;;;;;4926909;29;19911;-86
2023/12/02 14:41:05;;;;;;;;;;;-2.30;97.30;;;;;;4924878;29;20478;-89
2023/12/02 14:43:50;;;;;;;;;;;-2.30;97.30;;;;;;4907379;29;19908;-87
2023/12/02 14:46:16;;;;;;;;;;;-2.30;97.30;;;;;;4910277;29;19917;-85
2023/12/02 14:48:41;;;;;;;;;;;-2.30;97.30;;;;;;4924092;29;19907;-89
2023/12/02 14:51:07;;;;;;;;;;;-2.30;97.30;;;;;;4903255;29;19951;-87
2023/12/02 14:53:34;;;;;;;;;;;-2.30;97.30;;;;;;4910502;29;19926;-87
2023/12/02 14:56:00;;;;;;;;;;;-2.30;97.30;;;;;;4907792;29;20220;-87
2023/12/02 14:58:29;;;;;;;;;;;-2.30;97.30;;;;;;4920059;29;19907;-88
2023/12/02 15:00:57;;;;;;;;;;;-2.30;97.30;;;;;;4917348;29;20523;-86
2023/12/02 15:03:24;;;;;;;;;;;-2.40;97.30;;;;;;4927931;29;19915;-87
2023/12/02 15:05:50;;;;;;;;;;;-2.40;97.30;;;;;;4929508;29;20099;-86
2023/12/02 15:08:16;;;;;;;;;;;-2.40;97.30;;;;;;4918410;29;19942;-86
2023/12/02 15:10:42;;;;;;;;;;;-2.40;97.30;;;;;;4926032;29;20436;-86
2023/12/02 15:13:09;;;;;;;;;;;-2.40;97.30;;;;;;4909560;29;19910;-86
2023/12/02 15:15:40;;;;;;;;;;;-2.40;97.30;;;;;;4928669;29;19907;-86
2023/12/02 15:18:06;;;;;;;;;;;-2.40;97.30;;;;;;4926944;29;19907;-85
2023/12/02 15:20:35;;;;;;;;;;;-2.40;97.30;;;;;;4912684;29;20383;-86
2023/12/02 15:23:15;;;;;;;;;;;-2.30;97.30;;;;;;4913487;29;19907;-86
2023/12/02 15:25:41;;;;;;;;;;;-2.40;97.30;;;;;;4908573;29;19978;-85
2023/12/02 15:28:20;;;;;;;;;;;-2.40;97.30;;;;;;4908432;29;20395;-86
2023/12/02 15:30:45;;;;;;;;;;;-2.40;97.30;;;;;;4927878;29;19934;-86
2023/12/02 15:33:17;;;;;;;;;;;-2.40;97.30;;;;;;4928917;29;20368;-84
2023/12/02 15:35:43;;;;;;;;;;;-2.40;97.30;;;;;;4927479;29;19918;-84
2023/12/02 15:38:08;;;;;;;;;;;-2.30;97.30;;;;;;4927929;29;20018;-84
2023/12/02 15:40:34;;;;;;;;;;;-2.40;97.30;;;;;;4922710;29;20001;-87
2023/12/02 15:42:59;;;;;;;;;;;-2.40;97.30;;;;;;4902820;29;19963;-85
2023/12/02 15:45:25;;;;;;;;;;;-2.40;97.30;;;;;;4920319;29;19963;-83
2023/12/02 15:47:50;;;;;;;;;;;-2.50;97.30;;;;;;4927560;29;19974;-87
2023/12/02 15:50:16;;;;;;;;;;;-2.40;97.30;;;;;;4909508;29;19910;-85
2023/12/02 15:52:41;;;;;;;;;;;-2.40;97.30;;;;;;4922043;29;20296;-87
2023/12/02 15:55:07;;;;;;;;;;;-2.40;97.30;;;;;;4905774;29;19910;-86
2023/12/02 15:57:32;;;;;;;;;;;-2.40;97.30;;;;;;4923624;29;20410;-87
2023/12/02 15:59:58;;;;;;;;;;;-2.40;97.30;;;;;;4911353;29;19918;-86
2023/12/02 16:02:24;;;;;;;;;;;-2.40;97.30;;;;;;4908014;29;19907;-86
2023/12/02 16:04:49;;;;;;;;;;;-2.40;97.30;;;;;;4919705;29;19911;-85
2023/12/02 16:07:17;;;;;;;;;;;-2.40;97.30;;;;;;4921953;29;19907;-85
2023/12/02 16:09:47;;;;;;;;;;;-2.40;97.30;;;;;;4915004;29;19966;-86
2023/12/02 16:12:17;;;;;;;;;;;-2.40;97.30;;;;;;4910024;29;20390;-86
2023/12/02 16:14:43;;;;;;;;;;;-2.40;97.30;;;;;;4926596;29;19908;-85
2023/12/02 16:17:12;;;;;;;;;;;-2.40;97.30;;;;;;4912735;29;19911;-85
2023/12/02 16:19:38;;;;;;;;;;;-2.40;97.30;;;;;;4914514;29;19922;-87
2023/12/02 16:22:05;;;;;;;;;;;-2.40;97.30;;;;;;4906611;29;19978;-87
2023/12/02 16:24:30;;;;;;;;;;;-2.40;97.30;;;;;;4913661;29;19911;-87
2023/12/02 16:26:57;;;;;;;;;;;-2.40;97.30;;;;;;4903200;29;19913;-86
2023/12/02 16:29:22;;;;;;;;;;;-2.30;97.30;;;;;;4919468;29;19922;-87
2023/12/02 16:31:48;;;;;;;;;;;-2.30;97.30;;;;;;4915281;29;19915;-86
2023/12/02 16:34:14;;;;;;;;;;;-2.30;97.30;;;;;;4897491;29;20173;-85
2023/12/02 16:36:40;;;;;;;;;;;-2.40;97.30;;;;;;4899494;29;19919;-85
2023/12/02 16:39:09;;;;;;;;;;;-2.30;97.30;;;;;;4906813;29;19910;-86
2023/12/02 16:41:34;;;;;;;;;;;-2.30;97.30;;;;;;4918829;29;19911;-83
2023/12/02 16:44:00;;;;;;;;;;;-2.30;97.30;;;;;;4918728;29;20352;-87
2023/12/02 16:46:26;;;;;;;;;;;-2.20;97.30;;;;;;4921989;29;19914;-86
2023/12/02 16:48:51;;;;;;;;;;;-2.20;97.30;;;;;;4917173;29;19926;-86
2023/12/02 16:51:16;;;;;;;;;;;-2.10;97.30;;;;;;4916319;29;19919;-85
2023/12/02 16:53:42;;;;;;;;;;;-2.00;97.30;;;;;;4921391;29;19919;-86
2023/12/02 16:56:08;;;;;;;;;;;-2.00;97.30;;;;;;4926023;29;19914;-85
2023/12/02 16:58:37;;;;;;;;;;;-1.90;97.30;;;;;;4922568;29;19913;-87
2023/12/02 17:01:03;;;;;;;;;;;-1.80;97.30;;;;;;4923884;29;20256;-87
2023/12/02 17:03:34;;;;;;;;;;;-1.70;97.30;;;;;;4920937;29;19934;-86
2023/12/02 17:06:03;;;;;;;;;;;-1.60;97.30;;;;;;4924647;29;19910;-87
2023/12/02 17:08:29;;;;;;;;;;;-1.50;97.30;;;;;;4920158;29;19911;-86
2023/12/02 17:10:58;;;;;;;;;;;-1.40;97.30;;;;;;4901834;29;20299;-85
2023/12/02 17:13:24;;;;;;;;;;;-1.40;97.30;;;;;;4928364;29;20415;-86
2023/12/02 17:15:50;;;;;;;;;;;-1.50;97.30;;;;;;4915809;29;19907;-86
2023/12/02 17:18:34;;;;;;;;;;;-1.50;97.30;;;;;;4906680;29;20088;-86
2023/12/02 17:21:00;;;;;;;;;;;-1.50;97.30;;;;;;4926018;29;19913;-87
2023/12/02 17:23:28;;;;;;;;;;;-1.50;97.30;;;;;;4919597;29;20378;-86
2023/12/02 17:25:55;;;;;;;;;;;-1.50;97.30;;;;;;4923559;29;19915;-87
2023/12/02 17:28:21;;;;;;;;;;;-1.50;97.30;;;;;;4909384;29;19907;-87
2023/12/02 17:30:46;;;;;;;;;;;-1.40;97.30;;;;;;4917233;29;20297;-85
2023/12/02 17:33:12;;;;;;;;;;;-1.30;97.30;;;;;;4917815;29;20140;-86
2023/12/02 17:35:37;;;;;;;;;;;-1.20;97.30;;;;;;4908653;29;19907;-88
2023/12/02 17:38:04;;;;;;;;;;;-1.20;97.30;;;;;;4926566;29;19911;-89
2023/12/02 17:40:29;;;;;;;;;;;-1.20;97.30;;;;;;4908946;29;19907;-87
2023/12/02 17:42:55;;;;;;;;;;;-1.20;97.30;;;;;;4933580;29;19926;-89
2023/12/02 17:45:20;;;;;;;;;;;-1.30;97.30;;;;;;4940182;29;19913;-87
2023/12/02 17:47:45;;;;;;;;;;;-1.50;97.30;;;;;;4946635;29;19911;-85
2023/12/02 17:50:11;;;;;;;;;;;-1.60;97.30;;;;;;4926469;29;20299;-87
2023/12/02 17:52:36;;;;;;;;;;;-1.60;97.30;;;;;;4911210;29;20379;-86
2023/12/02 17:55:03;;;;;;;;;;;-1.50;97.30;;;;;;4901888;29;19934;-86
2023/12/02 17:57:29;;;;;;;;;;;-1.60;97.30;;;;;;4924050;29;19908;-87
2023/12/02 17:59:54;;;;;;;;;;;-1.60;97.30;;;;;;4919570;29;19970;-85
2023/12/02 18:02:20;;;;;;;;;;;-1.60;97.30;;;;;;4906772;29;20422;-87
2023/12/02 18:04:45;;;;;;;;;;;-1.80;97.30;;;;;;4930476;29;19914;-87
2023/12/02 18:07:10;;;;;;;;;;;-1.80;97.30;;;;;;4932980;29;19895;-87
2023/12/02 18:09:36;;;;;;;;;;;-1.90;97.30;;;;;;4927943;29;19907;-87
2023/12/02 18:12:02;;;;;;;;;;;-1.90;97.30;;;;;;4901575;29;19922;-88
2023/12/02 18:14:27;;;;;;;;;;;-2.00;97.30;;;;;;4923121;29;19975;-86
2023/12/02 18:16:53;;;;;;;;;;;-2.00;97.30;;;;;;4913780;29;19925;-81
2023/12/02 18:19:18;;;;;;;;;;;-2.10;97.30;;;;;;4923048;29;19943;-83
2023/12/02 18:21:44;;;;;;;;;;;-2.10;97.30;;;;;;4922412;29;19911;-84
2023/12/02 18:24:10;;;;;;;;;;;-2.10;97.30;;;;;;4939651;29;19981;-85
2023/12/02 18:26:35;;;;;;;;;;;-2.10;97.30;;;;;;4922876;29;19931;-84
2023/12/02 18:29:01;;;;;;;;;;;-2.10;97.30;;;;;;4928295;29;20599;-86
2023/12/02 18:31:26;;;;;;;;;;;-2.00;97.30;;;;;;4926659;29;19935;-85
2023/12/02 18:33:51;;;;;;;;;;;-1.90;97.30;;;;;;4920286;29;19922;-85
2023/12/02 18:36:17;;;;;;;;;;;-1.90;97.30;;;;;;4923258;29;20287;-85
2023/12/02 18:38:42;;;;;;;;;;;-1.80;97.30;;;;;;4918478;29;19940;-84
2023/12/02 18:41:08;;;;;;;;;;;-1.80;97.30;;;;;;4917018;29;19961;-85
2023/12/02 18:43:33;;;;;;;;;;;-1.80;97.30;;;;;;4926573;29;19917;-84
2023/12/02 18:45:59;;;;;;;;;;;-1.80;97.30;;;;;;4925150;29;19913;-84
2023/12/02 18:48:24;;;;;;;;;;;-1.70;97.30;;;;;;4919671;29;19921;-85
2023/12/02 18:50:50;;;;;;;;;;;-1.70;97.30;;;;;;4913115;29;20005;-83
2023/12/02 18:53:16;;;;;;;;;;;-1.70;97.30;;;;;;4902456;29;19919;-85
2023/12/02 18:55:41;;;;;;;;;;;-1.70;97.30;;;;;;4906787;29;19907;-85
2023/12/02 18:58:07;;;;;;;;;;;-1.70;97.30;;;;;;4908154;29;19959;-84
2023/12/02 19:00:33;;;;;;;;;;;-1.70;97.30;;;;;;4911208;29;19935;-86
2023/12/02 19:02:58;;;;;;;;;;;-1.80;97.30;;;;;;4921109;29;19993;-84
2023/12/02 19:05:24;;;;;;;;;;;-1.80;97.30;;;;;;4918669;29;19947;-85
2023/12/02 19:07:49;;;;;;;;;;;-1.90;97.30;;;;;;4922771;29;19906;-84
2023/12/02 19:10:15;;;;;;;;;;;-1.90;97.30;;;;;;4932515;29;20394;-84
2023/12/02 19:12:40;;;;;;;;;;;-1.90;97.30;;;;;;4908573;29;20388;-83
2023/12/02 19:15:06;;;;;;;;;;;-1.90;97.30;;;;;;4923608;29;19914;-84
2023/12/02 19:17:31;;;;;;;;;;;-1.90;97.30;;;;;;4910157;29;19929;-85
2023/12/02 19:19:57;;;;;;;;;;;-2.00;97.30;;;;;;4919371;29;19923;-85
2023/12/02 19:22:24;;;;;;;;;;;-2.00;97.30;;;;;;4925584;29;20364;-85